createdAt,value
2018-03-16T00:00:31.520Z,6.1
2018-03-16T00:05:31.507Z,6.2
2018-03-16T00:10:31.732Z,6.2
2018-03-16T00:15:31.718Z,6.1
2018-03-16T00:20:31.720Z,6.1
2018-03-16T00:25:31.742Z,6.1
2018-03-16T00:30:32.116Z,6.1
2018-03-16T00:35:31.933Z,6.1
2018-03-16T00:40:31.956Z,6.1
2018-03-16T00:45:32.104Z,6.1
2018-03-16T00:50:31.958Z,6.1
2018-03-16T00:55:31.959Z,6.1
2018-03-16T01:00:31.966Z,6.1
2018-03-16T01:05:32.127Z,6.1
2018-03-16T01:10:31.965Z,6.1
2018-03-16T01:15:32.102Z,6.1
2018-03-16T01:20:31.962Z,6.1
2018-03-16T01:25:32.087Z,6.1
2018-03-16T01:30:32.238Z,6
2018-03-16T01:35:32.143Z,6.1
2018-03-16T01:40:32.159Z,6.1
2018-03-16T01:45:32.381Z,6.1
2018-03-16T01:50:32.329Z,6.1
2018-03-16T01:55:32.142Z,6.1
2018-03-16T02:00:32.127Z,6.1
2018-03-16T02:05:32.159Z,6.1
2018-03-16T02:10:32.152Z,6.1
2018-03-16T02:15:32.172Z,6.1
2018-03-16T02:20:32.146Z,6.1
2018-03-16T02:25:32.361Z,6.1
2018-03-16T02:30:32.280Z,6.1
2018-03-16T02:35:32.319Z,6.1
2018-03-16T02:40:32.175Z,6.2
2018-03-16T02:45:32.176Z,6.1
2018-03-16T02:50:32.316Z,6.1
2018-03-16T02:55:32.355Z,6
2018-03-16T03:00:32.188Z,6
2018-03-16T03:05:36.531Z,6
2018-03-16T03:10:41.588Z,6
2018-03-16T03:15:36.704Z,6
2018-03-16T03:20:36.499Z,6
2018-03-16T03:25:36.515Z,6
2018-03-16T03:30:36.581Z,6
2018-03-16T03:35:36.513Z,6.1
2018-03-16T03:40:36.529Z,6
2018-03-16T03:45:36.699Z,6
2018-03-16T03:50:36.752Z,6
2018-03-16T03:55:36.539Z,6
2018-03-16T04:00:36.681Z,6
2018-03-16T04:05:36.722Z,6
2018-03-16T04:10:36.542Z,5.9
2018-03-16T04:15:36.714Z,6
2018-03-16T04:20:36.732Z,6
2018-03-16T04:25:36.541Z,6.1
2018-03-16T04:30:36.800Z,6
2018-03-16T04:35:36.556Z,6
2018-03-16T04:40:36.562Z,6.1
2018-03-16T04:45:36.573Z,6.1
2018-03-16T04:50:37.761Z,6.1
2018-03-16T04:55:36.578Z,6.1
2018-03-16T05:00:36.578Z,6.1
2018-03-16T05:05:36.581Z,6.1
2018-03-16T05:10:36.591Z,6.1
2018-03-16T05:15:36.600Z,6.1
2018-03-16T05:20:36.803Z,6.2
2018-03-16T05:25:36.652Z,6.2
2018-03-16T05:30:36.637Z,6.2
2018-03-16T05:35:36.651Z,6.2
2018-03-16T05:40:36.631Z,6.2
2018-03-16T05:45:36.654Z,6.2
2018-03-16T05:50:36.666Z,6.2
2018-03-16T05:55:36.678Z,6.3
2018-03-16T06:00:36.911Z,6.4
2018-03-16T06:05:36.683Z,6.4
2018-03-16T06:10:36.656Z,6.5
2018-03-16T06:15:36.684Z,6.6
2018-03-16T06:20:36.789Z,6.7
2018-03-16T06:25:36.669Z,6.7
2018-03-16T06:30:36.686Z,6.7
2018-03-16T06:35:36.664Z,6.7
2018-03-16T06:40:36.690Z,6.7
2018-03-16T06:45:36.894Z,6.7
2018-03-16T06:50:36.812Z,6.7
2018-03-16T06:55:36.681Z,6.8
2018-03-16T07:00:36.900Z,6.8
2018-03-16T07:05:36.688Z,6.8
2018-03-16T07:10:36.705Z,6.9
2018-03-16T07:15:36.690Z,6.9
2018-03-16T07:20:36.917Z,6.9
2018-03-16T07:25:36.712Z,6.9
2018-03-16T07:30:36.715Z,7
2018-03-16T07:35:36.698Z,7
2018-03-16T07:40:36.720Z,7
2018-03-16T07:45:36.712Z,7
2018-03-16T07:50:36.727Z,7.1
2018-03-16T07:55:36.715Z,7.1
2018-03-16T08:00:40.249Z,7.2
2018-03-16T08:05:45.413Z,7.5
2018-03-16T08:10:40.149Z,7.6
2018-03-16T08:15:40.378Z,7.9
2018-03-16T08:20:40.129Z,8
2018-03-16T08:25:40.163Z,8.3
2018-03-16T08:30:40.383Z,8.3
2018-03-16T08:35:40.140Z,8.5
2018-03-16T08:40:40.156Z,8.6
2018-03-16T08:45:40.156Z,9
2018-03-16T08:50:40.162Z,9.3
2018-03-16T08:55:40.147Z,9.3
2018-03-16T09:00:40.360Z,9.2
2018-03-16T09:05:40.174Z,9.2
2018-03-16T09:10:40.187Z,9.1
2018-03-16T09:15:40.139Z,9.1
2018-03-16T09:20:40.419Z,9.1
2018-03-16T09:25:40.162Z,9.1
2018-03-16T09:30:40.186Z,9
2018-03-16T09:35:40.255Z,9.1
2018-03-16T09:40:40.267Z,9.1
2018-03-16T09:45:40.210Z,9.1
2018-03-16T09:50:40.388Z,9
2018-03-16T09:55:40.246Z,9.1
2018-03-16T10:00:40.259Z,9.1
2018-03-16T10:05:40.268Z,9
2018-03-16T10:10:40.274Z,9.1
2018-03-16T10:15:40.271Z,9.2
2018-03-16T10:20:40.512Z,9.4
2018-03-16T10:25:40.409Z,9.5
2018-03-16T10:30:40.467Z,9.4
2018-03-16T10:35:40.587Z,9.5
2018-03-16T10:40:40.460Z,9.4
2018-03-16T10:45:40.473Z,9.5
2018-03-16T10:50:40.584Z,9.6
2018-03-16T10:55:40.460Z,9.7
2018-03-16T11:00:40.603Z,9.7
2018-03-16T11:05:40.466Z,9.8
2018-03-16T11:10:40.461Z,9.9
2018-03-16T11:15:40.677Z,9.9
2018-03-16T11:20:40.691Z,10
2018-03-16T11:25:40.486Z,9.9
2018-03-16T11:30:40.479Z,10
2018-03-16T11:35:40.489Z,10
2018-03-16T11:40:40.504Z,9.9
2018-03-16T11:45:40.545Z,10
2018-03-16T11:50:40.458Z,10
2018-03-16T11:55:40.653Z,10.1
2018-03-16T12:00:40.649Z,10.1
2018-03-16T12:05:40.694Z,10.2
2018-03-16T12:10:40.510Z,10.3
2018-03-16T12:15:40.793Z,10.4
2018-03-16T12:20:40.692Z,10.5
2018-03-16T12:25:40.514Z,10.7
2018-03-16T12:30:40.519Z,10.9
2018-03-16T12:35:40.565Z,11
2018-03-16T12:40:40.546Z,11
2018-03-16T12:45:40.519Z,11
2018-03-16T12:50:41.857Z,11.1
2018-03-16T12:55:47.046Z,11.2
2018-03-16T13:00:41.927Z,11.4
2018-03-16T13:05:42.122Z,11.5
2018-03-16T13:10:41.931Z,11.5
2018-03-16T13:15:41.937Z,11.6
2018-03-16T13:20:42.146Z,11.6
2018-03-16T13:25:41.946Z,11.4
2018-03-16T13:30:41.950Z,11.5
2018-03-16T13:35:41.955Z,11.2
2018-03-16T13:40:41.962Z,11.3
2018-03-16T13:45:42.208Z,11.4
2018-03-16T13:50:42.103Z,11.7
2018-03-16T13:55:41.975Z,11.9
2018-03-16T14:00:41.955Z,12
2018-03-16T14:05:42.252Z,11.8
2018-03-16T14:10:41.979Z,11.9
2018-03-16T14:15:41.974Z,11.6
2018-03-16T14:20:41.959Z,11.6
2018-03-16T14:25:41.958Z,11.6
2018-03-16T14:30:41.977Z,11.4
2018-03-16T14:35:41.998Z,11.4
2018-03-16T14:40:41.998Z,11.4
2018-03-16T14:45:42.002Z,11.4
2018-03-16T14:50:41.989Z,11.5
2018-03-16T14:55:42.004Z,11.4
2018-03-16T15:00:41.997Z,11.5
2018-03-16T15:05:42.095Z,11.5
2018-03-16T15:10:42.103Z,11.4
2018-03-16T15:15:42.097Z,11.4
2018-03-16T15:20:42.103Z,11.2
2018-03-16T15:25:42.084Z,10.9
2018-03-16T15:30:42.207Z,10.6
2018-03-16T15:35:42.094Z,10.3
2018-03-16T15:40:42.094Z,9.8
2018-03-16T15:45:42.099Z,9.6
2018-03-16T15:50:42.108Z,9.6
2018-03-16T15:55:43.110Z,9.9
2018-03-16T16:00:42.111Z,10
2018-03-16T16:05:42.108Z,9.9
2018-03-16T16:10:42.100Z,9.8
2018-03-16T16:15:42.130Z,9.6
2018-03-16T16:20:42.102Z,9.6
2018-03-16T16:25:42.122Z,9.5
2018-03-16T16:30:42.112Z,9.4
2018-03-16T16:35:42.138Z,9.3
2018-03-16T16:40:42.142Z,9.2
2018-03-16T16:45:42.132Z,9.2
2018-03-16T16:50:42.553Z,9.1
2018-03-16T16:55:42.134Z,9
2018-03-16T17:00:42.152Z,8.9
2018-03-16T17:05:42.135Z,8.9
2018-03-16T17:10:42.134Z,8.8
2018-03-16T17:15:42.128Z,8.8
2018-03-16T17:20:42.133Z,8.8
2018-03-16T17:25:42.149Z,8.7
2018-03-16T17:30:42.157Z,8.6
2018-03-16T17:35:42.148Z,8.5
2018-03-16T17:40:42.169Z,8.5
2018-03-16T17:45:42.139Z,8.4
2018-03-16T17:50:44.747Z,8.3
2018-03-16T17:55:49.839Z,8.2
2018-03-16T18:00:44.863Z,8
2018-03-16T18:05:44.878Z,7.9
2018-03-16T18:10:44.759Z,7.8
2018-03-16T18:15:44.770Z,7.8
2018-03-16T18:20:44.960Z,7.7
2018-03-16T18:25:44.772Z,7.7
2018-03-16T18:30:44.779Z,7.6
2018-03-16T18:35:44.802Z,7.5
2018-03-16T18:40:44.744Z,7.4
2018-03-16T18:45:44.773Z,7.4
2018-03-16T18:50:44.785Z,7.4
2018-03-16T18:55:44.806Z,7.4
2018-03-16T19:00:44.799Z,7.4
2018-03-16T19:05:44.966Z,7.4
2018-03-16T19:10:44.818Z,7.4
2018-03-16T19:15:44.802Z,7.3
2018-03-16T19:20:44.821Z,7.2
2018-03-16T19:25:44.801Z,7.1
2018-03-16T19:30:44.920Z,7
2018-03-16T19:35:44.803Z,6.9
2018-03-16T19:40:45.001Z,6.8
2018-03-16T19:45:44.801Z,6.8
2018-03-16T19:50:44.831Z,6.8
2018-03-16T19:55:44.843Z,6.6
2018-03-16T20:00:44.836Z,6.5
2018-03-16T20:05:44.831Z,6.6
2018-03-16T20:10:44.859Z,6.5
2018-03-16T20:15:44.839Z,6.5
2018-03-16T20:20:44.858Z,6.4
2018-03-16T20:25:44.833Z,6.4
2018-03-16T20:30:44.825Z,6.5
2018-03-16T20:35:45.089Z,6.6
2018-03-16T20:40:44.857Z,6.6
2018-03-16T20:45:44.857Z,6.7
2018-03-16T20:50:44.816Z,6.6
2018-03-16T20:55:44.866Z,6.5
2018-03-16T21:00:44.882Z,6.4
2018-03-16T21:05:45.102Z,6.2
2018-03-16T21:10:45.119Z,6.2
2018-03-16T21:15:45.120Z,6
2018-03-16T21:20:45.068Z,6
2018-03-16T21:25:45.146Z,6
2018-03-16T21:30:45.141Z,5.9
2018-03-16T21:35:45.137Z,5.8
2018-03-16T21:40:45.136Z,5.6
2018-03-16T21:45:45.117Z,5.5
2018-03-16T21:50:45.115Z,5.5
2018-03-16T21:55:45.339Z,5.5
2018-03-16T22:00:45.151Z,5.5
2018-03-16T22:05:45.132Z,5.5
2018-03-16T22:10:45.146Z,5.5
2018-03-16T22:15:45.143Z,5.6
2018-03-16T22:20:45.171Z,5.5
2018-03-16T22:25:45.148Z,5.6
2018-03-16T22:30:45.164Z,5.6
2018-03-16T22:35:45.153Z,5.7
2018-03-16T22:40:45.120Z,5.7
2018-03-16T22:45:45.155Z,5.6
2018-03-16T22:50:48.520Z,5.7
2018-03-16T22:55:53.612Z,5.7
2018-03-16T23:00:48.554Z,5.7
2018-03-16T23:05:48.531Z,5.7
2018-03-16T23:10:48.548Z,5.8
2018-03-16T23:15:48.533Z,5.6
2018-03-16T23:20:48.572Z,5.6
2018-03-16T23:25:48.554Z,5.6
2018-03-16T23:30:48.526Z,5.6
2018-03-16T23:35:48.547Z,5.6
2018-03-16T23:40:48.571Z,5.5
2018-03-16T23:45:48.585Z,5.4
2018-03-16T23:50:48.555Z,5.4
2018-03-16T23:55:48.562Z,5.4
